Hat Creek, CA (96040)

12:00 AM PST on November 26, 2014 (GMT -0800)
Cassel | Change Station
CLOSE
Current Station
Personal Weather Station
Location: Cassel, CA
Elevation: 3225 ft
Nearby Weather Stations
Active Advisory: Special Statement

Elev 3225 ft 40.91 °N, 121.56 °W | Updated 12 seconds ago

Clear
Clear
30.0 °F
Feels Like 30 °F
N
0.0
Wind Variable Wind from South
Gusts 0.0 mph

Today
High -- | Low -- °F
--% Chance of Precip.
Yesterday
High -- | Low -- °F
Precip. -- in
7:05 AM 4:40 PM
Waxing Crescent, 17% visible
Pressure 30.47 in
Visibility 4.0 miles
Clouds Clear
Windchill 30 °F
Dew Point 29 °F
Humidity 95%
Rainfall 0.00 in
Snow Depth Not available.
UV 1.0 out of 12
Pollen 1.00 out of 12
Air Quality Not available.
Flu Activity Not available.
METAR KMHS 260756Z AUTO 00000KT 4SM BR CLR 01/M01 A3041 RMK AO2 SLP317 T00111006 401611006

More Conditions Fewer Conditions

Pressure 30.47 in
Visibility 4.0 miles
Clouds Clear
Windchill 30 °F
Dew Point 29 °F
Humidity 95%
Rainfall 0.00 in
Snow Depth Not available.
UV 1.0 out of 12
Pollen 1.00 out of 12
Air Quality Not available.
Flu Activity Not available.
METAR KMHS 260756Z AUTO 00000KT 4SM BR CLR 01/M01 A3041 RMK AO2 SLP317 T00111006 401611006

More Conditions Fewer Conditions

10-Day Weather Forecast

Almanac

Astronomy

Nov. 26, 2014 Rise Set
Actual Time
Civil Twilight
Nautical Twilight
Astronomical Twilight
Moon
Length of Visible Light
Length of Day
Tomorrow will be .
, % of the Moon is Illuminated

Today's Extremes

State Highs State Lows

Community

WunderPhotos

Upload Photos

1,773,694 photos uploaded!

WunderBlogs® & News

Nearby

Air Quality

  Air Quality AQ Index Pollutant
Not available.

Snow Depth

Station Depth Elevation

Earthquake Activity

City Distance Mag. Time & Date
Minimum magnitude displayed is 2.5.

Coastal Water Temperatures

Place Temperature

Nearby Weather Stations